createdAt,value
2023-03-02T00:02:23.382Z,1890.00
2023-03-02T00:05:35.615Z,1812.25
2023-03-02T00:08:43.197Z,1716.71
2023-03-02T00:11:53.584Z,1666.15
2023-03-02T00:15:08.756Z,1665.98
2023-03-02T00:18:15.485Z,1588.99
2023-03-02T00:21:24.757Z,1622.90
2023-03-02T00:24:31.734Z,1567.91
2023-03-02T00:27:37.996Z,1573.47
2023-03-02T00:30:44.824Z,1593.65
2023-03-02T00:33:51.427Z,1531.70
2023-03-02T00:37:00.906Z,1495.42
2023-03-02T00:40:14.848Z,1653.72
2023-03-02T00:43:31.202Z,1582.68
2023-03-02T00:46:37.229Z,1449.48
2023-03-02T00:49:49.221Z,1343.12
2023-03-02T00:52:59.226Z,1381.53
2023-03-02T00:56:08.467Z,1419.68
2023-03-02T00:59:26.756Z,1384.25
2023-03-02T01:02:56.700Z,1144.30
2023-03-02T01:06:04.941Z,1320.90
2023-03-02T01:09:19.423Z,1342.92
2023-03-02T01:12:26.045Z,1300.22
2023-03-02T01:15:33.682Z,1331.62
2023-03-02T01:18:39.698Z,1338.74
2023-03-02T01:21:48.045Z,1506.80
2023-03-02T01:24:56.632Z,1567.70
2023-03-02T01:28:03.366Z,1502.13
2023-03-02T01:31:18.344Z,1482.62
2023-03-02T01:34:25.135Z,1368.81
2023-03-02T01:37:31.182Z,1294.69
2023-03-02T01:40:40.710Z,1269.84
2023-03-02T01:43:49.849Z,1188.70
2023-03-02T01:46:56.862Z,1154.44
2023-03-02T01:50:20.597Z,1166.05
2023-03-02T01:53:34.406Z,1145.85
2023-03-02T01:56:44.656Z,1181.58
2023-03-02T01:59:59.841Z,1144.38
2023-03-02T02:03:22.332Z,1099.46
2023-03-02T02:06:37.879Z,1170.92
2023-03-02T02:09:50.759Z,1197.20
2023-03-02T02:13:00.290Z,1139.92
2023-03-02T02:16:11.274Z,1091.81
2023-03-02T02:19:41.408Z,1049.79
2023-03-02T02:23:08.912Z,1087.36
2023-03-02T02:26:35.681Z,1074.95
2023-03-02T02:29:50.044Z,1208.74
2023-03-02T02:33:01.596Z,1215.66
2023-03-02T02:36:19.284Z,1261.81
2023-03-02T02:39:37.376Z,1299.42
2023-03-02T02:42:53.413Z,1386.54
2023-03-02T02:46:08.023Z,1375.31
2023-03-02T02:49:32.177Z,1443.49
2023-03-02T02:52:41.858Z,1426.18
2023-03-02T02:55:54.927Z,1373.04
2023-03-02T02:59:13.831Z,1358.94
2023-03-02T03:02:24.760Z,1058.70
2023-03-02T03:05:31.575Z,1000.15
2023-03-02T03:08:58.884Z,834.47
2023-03-02T03:12:25.045Z,800.75
2023-03-02T03:15:34.749Z,837.18
2023-03-02T03:18:42.768Z,974.65
2023-03-02T03:21:52.725Z,1001.40
2023-03-02T03:25:00.380Z,1876.58
2023-03-02T03:28:06.579Z,2328.48
2023-03-02T03:31:16.787Z,2056.14
2023-03-02T03:34:24.121Z,2022.70
2023-03-02T03:37:30.967Z,1858.24
2023-03-02T03:40:37.064Z,1707.24
2023-03-02T03:43:43.968Z,1458.97
2023-03-02T03:46:53.644Z,1351.24
2023-03-02T03:50:00.681Z,1154.25
2023-03-02T03:53:08.223Z,1078.65
2023-03-02T03:56:15.909Z,1152.75
2023-03-02T03:59:25.869Z,1289.50
2023-03-02T04:02:43.101Z,1335.51
2023-03-02T04:05:51.864Z,1363.04
2023-03-02T04:09:05.175Z,1316.16
2023-03-02T04:12:13.762Z,1265.62
2023-03-02T04:15:27.438Z,1236.78
2023-03-02T04:18:36.864Z,1209.83
2023-03-02T04:21:47.110Z,1125.07
2023-03-02T04:24:55.481Z,1032.61
2023-03-02T04:28:02.923Z,1031.55
2023-03-02T04:31:14.354Z,1026.49
2023-03-02T04:34:25.740Z,1024.54
2023-03-02T04:37:32.217Z,1065.01
2023-03-02T04:40:39.383Z,1242.33
2023-03-02T04:43:45.708Z,1500.42
2023-03-02T04:46:53.592Z,1542.19
2023-03-02T04:50:02.220Z,1574.15
2023-03-02T04:53:08.960Z,1474.00
2023-03-02T04:56:14.893Z,1358.78
2023-03-02T04:59:24.291Z,1236.91
2023-03-02T05:02:30.345Z,1173.05
2023-03-02T05:05:40.065Z,1191.92
2023-03-02T05:08:46.171Z,1255.64
2023-03-02T05:11:52.894Z,1241.47
2023-03-02T05:14:58.755Z,1241.81
2023-03-02T05:18:07.475Z,1244.38
2023-03-02T05:21:17.918Z,1234.68
2023-03-02T05:24:24.955Z,1213.10
2023-03-02T05:27:30.899Z,1194.69
2023-03-02T05:30:38.090Z,1215.81
2023-03-02T05:33:44.059Z,1210.62
2023-03-02T05:36:53.553Z,1192.26
2023-03-02T05:39:59.464Z,1190.63
2023-03-02T05:43:06.441Z,1242.05
2023-03-02T05:46:12.429Z,1332.42
2023-03-02T05:49:19.161Z,1334.32
2023-03-02T05:52:27.822Z,1511.28
2023-03-02T05:55:37.389Z,1574.36
2023-03-02T05:58:43.435Z,1683.24
2023-03-02T06:01:51.306Z,1749.69
2023-03-02T06:04:57.500Z,1646.70
2023-03-02T06:08:08.568Z,1504.61
2023-03-02T06:11:15.861Z,1503.86
2023-03-02T06:14:22.588Z,1491.86
2023-03-02T06:17:28.613Z,1459.03
2023-03-02T06:20:35.491Z,1288.19
2023-03-02T06:23:44.017Z,1369.14
2023-03-02T06:26:50.754Z,1363.84
2023-03-02T06:29:56.934Z,1352.85
2023-03-02T06:33:03.861Z,1783.24
2023-03-02T06:36:12.847Z,1813.34
2023-03-02T06:39:22.371Z,1746.88
2023-03-02T06:42:31.139Z,1691.73
2023-03-02T06:45:38.055Z,1306.29
2023-03-02T06:48:43.958Z,1136.24
2023-03-02T06:51:50.706Z,1105.72
2023-03-02T06:54:59.925Z,1010.71
2023-03-02T06:58:06.776Z,933.42
2023-03-02T07:01:12.679Z,903.64
2023-03-02T07:04:20.400Z,758.36
2023-03-02T07:07:26.212Z,815.90
2023-03-02T07:10:36.238Z,650.43
2023-03-02T07:13:42.837Z,582.75
2023-03-02T07:16:49.738Z,460.53
2023-03-02T07:19:55.733Z,411.42
2023-03-02T07:23:02.425Z,365.42
2023-03-02T07:26:11.344Z,355.47
2023-03-02T07:29:18.124Z,328.62
2023-03-02T07:32:24.405Z,323.54
2023-03-02T07:35:31.124Z,316.09
2023-03-02T07:38:37.498Z,316.51
2023-03-02T07:41:48.080Z,299.21
2023-03-02T07:44:56.601Z,304.56
2023-03-02T07:48:03.818Z,299.90
2023-03-02T07:51:10.625Z,311.40
2023-03-02T07:54:17.413Z,309.63
2023-03-02T07:57:26.074Z,303.00
2023-03-02T08:00:32.823Z,296.10
2023-03-02T12:03:25.231Z,163.58
2023-03-02T12:06:45.488Z,158.72
2023-03-02T12:10:05.882Z,163.32
2023-03-02T12:13:27.928Z,162.50
2023-03-02T12:16:41.539Z,164.35
2023-03-02T12:19:54.956Z,167.60
2023-03-02T12:23:13.598Z,169.33
2023-03-02T12:26:36.969Z,169.44
2023-03-02T12:29:46.223Z,184.34
2023-03-02T12:33:08.284Z,169.14
2023-03-02T12:36:28.740Z,171.15
2023-03-02T12:40:21.448Z,161.58
2023-03-02T12:43:34.878Z,161.25
2023-03-02T12:46:43.173Z,162.01
2023-03-02T12:49:59.174Z,150.98
2023-03-02T12:53:21.336Z,157.05
2023-03-02T12:56:29.289Z,161.46
2023-03-02T12:59:36.602Z,155.15
2023-03-02T13:02:51.343Z,148.74
2023-03-02T13:06:05.719Z,145.11
2023-03-02T13:09:20.630Z,143.45
2023-03-02T13:12:31.171Z,137.19
2023-03-02T13:15:37.220Z,153.32
2023-03-02T13:18:44.239Z,142.92
2023-03-02T13:21:50.821Z,136.71
2023-03-02T13:25:05.696Z,137.18
2023-03-02T13:28:31.059Z,140.10
2023-03-02T13:31:38.836Z,143.08
2023-03-02T13:34:52.487Z,136.56
2023-03-02T13:38:05.288Z,137.46
2023-03-02T13:41:25.561Z,143.54
2023-03-02T13:44:35.663Z,140.87
2023-03-02T13:47:43.988Z,146.51
2023-03-02T13:51:03.208Z,139.43
2023-03-02T13:54:24.563Z,129.48
2023-03-02T13:57:36.281Z,130.41
2023-03-02T14:00:43.117Z,178.56
2023-03-02T14:03:49.861Z,133.01
2023-03-02T14:06:59.720Z,134.13
2023-03-02T14:10:08.923Z,128.12
2023-03-02T14:13:25.210Z,134.01
2023-03-02T14:16:34.886Z,134.73
2023-03-02T14:19:40.866Z,137.11
2023-03-02T14:22:47.670Z,157.01
2023-03-02T14:25:55.793Z,175.47
2023-03-02T14:29:16.917Z,176.63
2023-03-02T14:32:23.105Z,185.78
2023-03-02T14:35:29.900Z,185.60
2023-03-02T14:38:36.409Z,201.12
2023-03-02T14:41:52.888Z,182.87
2023-03-02T14:45:02.138Z,175.84
2023-03-02T14:48:09.142Z,165.64
2023-03-02T14:51:27.168Z,170.94
2023-03-02T14:54:44.135Z,177.11
2023-03-02T14:57:59.006Z,170.86
2023-03-02T15:01:11.155Z,172.50
2023-03-02T15:04:17.148Z,165.52
2023-03-02T15:07:24.794Z,160.16
2023-03-02T15:10:31.484Z,166.77
2023-03-02T15:13:38.277Z,157.99
2023-03-02T15:16:49.091Z,157.43
2023-03-02T15:19:56.048Z,168.06
2023-03-02T15:23:02.192Z,161.92
2023-03-02T15:26:09.324Z,162.79
2023-03-02T15:29:16.389Z,165.04
2023-03-02T15:32:25.897Z,165.66
2023-03-02T15:35:32.426Z,185.37
2023-03-02T15:38:39.860Z,193.31
2023-03-02T15:41:46.197Z,198.63
2023-03-02T15:44:53.030Z,226.97
2023-03-02T15:48:01.583Z,212.01
2023-03-02T15:51:11.252Z,181.56
2023-03-02T15:54:17.438Z,184.14
2023-03-02T15:57:24.295Z,177.82
2023-03-02T16:00:30.993Z,194.12
2023-03-02T16:03:43.233Z,250.02
2023-03-02T16:06:49.968Z,267.45
2023-03-02T16:09:57.469Z,343.77
2023-03-02T16:13:07.982Z,399.53
2023-03-02T16:16:15.743Z,421.95
2023-03-02T16:19:26.309Z,475.36
2023-03-02T16:22:33.685Z,519.89
2023-03-02T16:25:43.744Z,553.73
2023-03-02T16:28:51.990Z,601.11
2023-03-02T16:31:58.398Z,583.05
2023-03-02T16:35:15.547Z,494.81
2023-03-02T16:38:22.473Z,437.40
2023-03-02T16:41:29.766Z,461.99
2023-03-02T16:44:35.982Z,434.31
2023-03-02T16:47:43.570Z,414.33
2023-03-02T16:50:58.931Z,393.41
2023-03-02T16:54:06.558Z,562.14
2023-03-02T16:57:14.375Z,849.51
2023-03-02T17:00:28.124Z,975.62
2023-03-02T17:03:34.807Z,649.65
2023-03-02T17:07:00.424Z,421.66
2023-03-02T17:10:09.874Z,355.06
2023-03-02T17:13:17.716Z,345.30
2023-03-02T17:16:25.075Z,325.52
2023-03-02T17:19:32.417Z,349.50
2023-03-02T17:22:41.691Z,454.07
2023-03-02T17:25:48.744Z,389.23
2023-03-02T17:28:54.624Z,488.42
2023-03-02T17:32:01.617Z,529.22
2023-03-02T17:35:08.911Z,520.11
2023-03-02T17:38:22.096Z,508.27
2023-03-02T17:41:29.123Z,518.95
2023-03-02T17:44:37.648Z,496.55
2023-03-02T17:47:43.879Z,462.15
2023-03-02T17:50:52.870Z,447.63
2023-03-02T17:54:01.558Z,397.72
2023-03-02T17:57:08.657Z,341.99
2023-03-02T18:00:21.717Z,342.12
2023-03-02T18:03:28.619Z,397.65
2023-03-02T18:06:35.095Z,308.57
2023-03-02T18:09:44.696Z,312.78
2023-03-02T18:12:54.384Z,400.83
2023-03-02T18:16:10.541Z,479.89
2023-03-02T18:19:26.766Z,431.16
2023-03-02T18:22:33.662Z,856.37
2023-03-02T18:25:42.395Z,672.68
2023-03-02T18:28:52.068Z,546.00
2023-03-02T18:31:58.276Z,581.88
2023-03-02T18:35:14.522Z,1236.69
2023-03-02T18:38:20.762Z,1246.67
2023-03-02T18:41:30.461Z,1040.36
2023-03-02T18:44:39.153Z,708.15
2023-03-02T18:47:46.269Z,1185.49
2023-03-02T18:50:53.634Z,998.77
2023-03-02T18:54:00.650Z,855.92
2023-03-02T18:57:10.269Z,446.92
2023-03-02T19:00:27.689Z,435.06
2023-03-02T19:03:39.301Z,408.84
2023-03-02T19:06:46.925Z,515.08
2023-03-02T19:09:52.929Z,502.37
2023-03-02T19:13:09.478Z,546.73
2023-03-02T19:16:42.040Z,538.88
2023-03-02T19:19:49.046Z,550.11
2023-03-02T19:22:58.028Z,540.99
2023-03-02T19:26:12.407Z,522.71
2023-03-02T19:29:23.551Z,516.97
2023-03-02T19:32:30.687Z,521.97
2023-03-02T19:35:38.129Z,514.06
2023-03-02T19:38:45.134Z,511.41
2023-03-02T19:41:51.197Z,524.70
2023-03-02T19:45:00.939Z,528.58
2023-03-02T19:48:09.277Z,527.60
2023-03-02T19:51:17.894Z,525.75
2023-03-02T19:54:23.816Z,520.75
2023-03-02T19:57:33.149Z,522.72
2023-03-02T20:00:42.829Z,538.35
2023-03-02T20:03:49.899Z,561.87
2023-03-02T20:06:55.977Z,553.91
2023-03-02T20:10:03.097Z,563.76
2023-03-02T20:13:10.622Z,559.92
2023-03-02T20:16:23.172Z,560.66
2023-03-02T20:19:29.282Z,573.08
2023-03-02T20:22:37.897Z,567.06
2023-03-02T20:25:46.207Z,580.53
2023-03-02T20:28:58.769Z,597.24
2023-03-02T20:32:11.866Z,617.52
2023-03-02T20:35:19.188Z,739.38
2023-03-02T20:38:31.882Z,849.20
2023-03-02T20:41:42.025Z,651.52
2023-03-02T20:44:50.155Z,587.66
2023-03-02T20:47:59.634Z,608.26
2023-03-02T20:51:07.512Z,621.96
2023-03-02T20:54:14.743Z,622.80
2023-03-02T20:57:25.053Z,646.98
2023-03-02T21:00:34.898Z,842.03
2023-03-02T21:03:45.186Z,893.32
2023-03-02T21:06:53.377Z,731.64
2023-03-02T21:09:59.660Z,685.98
2023-03-02T21:13:12.146Z,678.49
2023-03-02T21:16:22.434Z,672.17
2023-03-02T21:19:34.096Z,683.07
2023-03-02T21:22:40.220Z,685.94
2023-03-02T21:25:51.469Z,681.77
2023-03-02T21:28:59.059Z,690.52
2023-03-02T21:32:08.258Z,702.87
2023-03-02T21:35:20.064Z,694.18
2023-03-02T21:38:26.984Z,694.39
2023-03-02T21:41:33.885Z,700.24
2023-03-02T21:44:47.894Z,688.58
2023-03-02T21:47:56.432Z,697.71
2023-03-02T21:51:05.862Z,696.35
2023-03-02T21:54:12.288Z,722.56
2023-03-02T21:57:19.440Z,746.43
2023-03-02T22:00:32.705Z,733.88
2023-03-02T22:03:40.014Z,736.18
2023-03-02T22:06:48.564Z,730.80
2023-03-02T22:09:55.501Z,711.53
2023-03-02T22:13:28.761Z,721.87
2023-03-02T22:16:41.965Z,699.45
2023-03-02T22:19:52.277Z,669.91
2023-03-02T22:23:02.697Z,658.98
2023-03-02T22:26:20.066Z,649.71
2023-03-02T22:29:29.906Z,647.45
2023-03-02T22:32:41.523Z,641.48
2023-03-02T22:35:48.464Z,636.75
2023-03-02T22:39:09.048Z,658.05
2023-03-02T22:42:20.824Z,663.11
2023-03-02T22:45:27.565Z,661.20
2023-03-02T22:48:39.461Z,645.73
2023-03-02T22:51:46.678Z,665.49
2023-03-02T22:54:56.064Z,670.26
2023-03-02T22:58:02.081Z,667.59
2023-03-02T23:01:40.550Z,679.70
2023-03-02T23:04:52.851Z,698.39
2023-03-02T23:08:24.355Z,716.87
2023-03-02T23:11:41.090Z,665.02
2023-03-02T23:14:54.646Z,668.72
2023-03-02T23:18:01.923Z,690.93
2023-03-02T23:21:20.380Z,699.64
2023-03-02T23:24:26.612Z,709.65
2023-03-02T23:27:36.297Z,720.41
2023-03-02T23:30:43.074Z,767.61
2023-03-02T23:33:50.361Z,720.66
2023-03-02T23:36:56.355Z,695.92
2023-03-02T23:40:10.549Z,709.07
2023-03-02T23:43:26.738Z,676.64
2023-03-02T23:46:33.762Z,671.66
2023-03-02T23:49:39.633Z,726.53
2023-03-02T23:52:46.608Z,750.91
2023-03-02T23:55:58.126Z,764.13
2023-03-02T23:59:08.103Z,705.82
